sensor_id;sensor_type;location;lat;lon;timestamp;P1;durP1;ratioP1;P2;durP2;ratioP2
24279;SDS011;12395;42.808;23.408;2022-12-07T00:00:28;23.02;;;11.48;;
24279;SDS011;12395;42.808;23.408;2022-12-07T00:02:54;21.88;;;11.00;;
24279;SDS011;12395;42.808;23.408;2022-12-07T00:05:19;25.98;;;10.95;;
24279;SDS011;12395;42.808;23.408;2022-12-07T00:07:44;19.95;;;10.43;;
24279;SDS011;12395;42.808;23.408;2022-12-07T00:10:10;23.20;;;13.48;;
24279;SDS011;12395;42.808;23.408;2022-12-07T00:12:35;26.17;;;15.00;;
24279;SDS011;12395;42.808;23.408;2022-12-07T00:15:01;20.27;;;11.38;;
24279;SDS011;12395;42.808;23.408;2022-12-07T00:17:26;18.73;;;9.15;;
24279;SDS011;12395;42.808;23.408;2022-12-07T00:19:51;18.38;;;9.40;;
24279;SDS011;12395;42.808;23.408;2022-12-07T00:22:17;16.33;;;8.27;;
24279;SDS011;12395;42.808;23.408;2022-12-07T00:24:42;21.35;;;9.57;;
24279;SDS011;12395;42.808;23.408;2022-12-07T00:27:07;19.30;;;9.38;;
24279;SDS011;12395;42.808;23.408;2022-12-07T00:29:33;18.17;;;9.10;;
24279;SDS011;12395;42.808;23.408;2022-12-07T00:31:58;18.45;;;9.73;;
24279;SDS011;12395;42.808;23.408;2022-12-07T00:34:24;20.52;;;8.93;;
24279;SDS011;12395;42.808;23.408;2022-12-07T00:36:49;18.67;;;9.55;;
24279;SDS011;12395;42.808;23.408;2022-12-07T00:39:15;19.08;;;9.57;;
24279;SDS011;12395;42.808;23.408;2022-12-07T00:41:41;19.75;;;9.43;;
24279;SDS011;12395;42.808;23.408;2022-12-07T00:44:06;20.48;;;9.90;;
24279;SDS011;12395;42.808;23.408;2022-12-07T00:46:32;17.67;;;9.40;;
24279;SDS011;12395;42.808;23.408;2022-12-07T00:48:57;19.00;;;9.48;;
24279;SDS011;12395;42.808;23.408;2022-12-07T00:51:23;20.73;;;9.57;;
24279;SDS011;12395;42.808;23.408;2022-12-07T00:53:50;18.75;;;9.63;;
24279;SDS011;12395;42.808;23.408;2022-12-07T00:56:17;19.23;;;9.30;;
24279;SDS011;12395;42.808;23.408;2022-12-07T00:58:48;18.33;;;8.90;;
24279;SDS011;12395;42.808;23.408;2022-12-07T01:01:35;18.35;;;9.38;;
24279;SDS011;12395;42.808;23.408;2022-12-07T01:04:02;17.23;;;9.00;;
24279;SDS011;12395;42.808;23.408;2022-12-07T01:06:28;16.15;;;8.43;;
24279;SDS011;12395;42.808;23.408;2022-12-07T01:08:54;16.88;;;8.55;;
24279;SDS011;12395;42.808;23.408;2022-12-07T01:11:20;17.40;;;8.38;;
24279;SDS011;12395;42.808;23.408;2022-12-07T01:13:51;19.52;;;8.05;;
24279;SDS011;12395;42.808;23.408;2022-12-07T01:16:18;17.60;;;8.50;;
24279;SDS011;12395;42.808;23.408;2022-12-07T01:18:46;18.17;;;9.10;;
24279;SDS011;12395;42.808;23.408;2022-12-07T01:21:14;16.70;;;7.70;;
24279;SDS011;12395;42.808;23.408;2022-12-07T01:23:42;17.33;;;7.95;;
24279;SDS011;12395;42.808;23.408;2022-12-07T01:26:12;21.17;;;9.60;;
24279;SDS011;12395;42.808;23.408;2022-12-07T01:28:40;18.42;;;9.15;;
24279;SDS011;12395;42.808;23.408;2022-12-07T01:31:06;18.23;;;8.60;;
24279;SDS011;12395;42.808;23.408;2022-12-07T01:33:36;17.88;;;8.50;;
24279;SDS011;12395;42.808;23.408;2022-12-07T01:36:05;18.73;;;9.15;;
24279;SDS011;12395;42.808;23.408;2022-12-07T01:38:47;16.48;;;8.68;;
24279;SDS011;12395;42.808;23.408;2022-12-07T01:41:15;19.63;;;9.00;;
24279;SDS011;12395;42.808;23.408;2022-12-07T01:46:39;19.27;;;9.13;;
24279;SDS011;12395;42.808;23.408;2022-12-07T01:49:06;16.80;;;9.15;;
24279;SDS011;12395;42.808;23.408;2022-12-07T01:51:34;18.30;;;9.07;;
24279;SDS011;12395;42.808;23.408;2022-12-07T01:54:01;18.58;;;8.77;;
24279;SDS011;12395;42.808;23.408;2022-12-07T01:56:27;16.63;;;8.70;;
24279;SDS011;12395;42.808;23.408;2022-12-07T01:58:54;16.02;;;8.50;;
24279;SDS011;12395;42.808;23.408;2022-12-07T02:01:21;15.38;;;7.80;;
24279;SDS011;12395;42.808;23.408;2022-12-07T02:03:46;15.15;;;7.63;;
24279;SDS011;12395;42.808;23.408;2022-12-07T02:06:14;16.13;;;7.60;;
24279;SDS011;12395;42.808;23.408;2022-12-07T02:08:43;17.50;;;8.70;;
24279;SDS011;12395;42.808;23.408;2022-12-07T02:11:09;19.20;;;9.20;;
24279;SDS011;12395;42.808;23.408;2022-12-07T02:13:36;22.38;;;10.95;;
24279;SDS011;12395;42.808;23.408;2022-12-07T02:16:14;18.95;;;9.63;;
24279;SDS011;12395;42.808;23.408;2022-12-07T02:19:48;20.67;;;9.73;;
24279;SDS011;12395;42.808;23.408;2022-12-07T02:21:51;18.65;;;9.27;;
24279;SDS011;12395;42.808;23.408;2022-12-07T02:30:09;23.20;;;11.20;;
24279;SDS011;12395;42.808;23.408;2022-12-07T02:32:44;21.35;;;10.32;;
24279;SDS011;12395;42.808;23.408;2022-12-07T02:37:39;19.67;;;9.48;;
24279;SDS011;12395;42.808;23.408;2022-12-07T02:40:08;20.63;;;9.32;;
24279;SDS011;12395;42.808;23.408;2022-12-07T02:42:44;17.95;;;8.73;;
24279;SDS011;12395;42.808;23.408;2022-12-07T02:45:15;20.38;;;8.50;;
24279;SDS011;12395;42.808;23.408;2022-12-07T02:47:45;16.83;;;8.32;;
24279;SDS011;12395;42.808;23.408;2022-12-07T02:50:17;15.25;;;7.20;;
24279;SDS011;12395;42.808;23.408;2022-12-07T02:52:45;16.88;;;7.90;;
24279;SDS011;12395;42.808;23.408;2022-12-07T02:55:11;16.10;;;7.33;;
24279;SDS011;12395;42.808;23.408;2022-12-07T02:57:41;17.27;;;7.73;;
24279;SDS011;12395;42.808;23.408;2022-12-07T03:00:19;18.25;;;7.50;;
24279;SDS011;12395;42.808;23.408;2022-12-07T03:08:21;17.33;;;7.95;;
24279;SDS011;12395;42.808;23.408;2022-12-07T03:11:08;20.27;;;8.13;;
24279;SDS011;12395;42.808;23.408;2022-12-07T03:13:42;19.60;;;9.15;;
24279;SDS011;12395;42.808;23.408;2022-12-07T03:16:20;21.43;;;8.07;;
24279;SDS011;12395;42.808;23.408;2022-12-07T03:24:24;22.83;;;8.77;;
24279;SDS011;12395;42.808;23.408;2022-12-07T03:26:55;21.38;;;8.85;;
24279;SDS011;12395;42.808;23.408;2022-12-07T03:29:28;18.67;;;8.60;;
24279;SDS011;12395;42.808;23.408;2022-12-07T03:32:13;19.55;;;7.93;;
24279;SDS011;12395;42.808;23.408;2022-12-07T03:34:46;18.92;;;7.68;;
24279;SDS011;12395;42.808;23.408;2022-12-07T03:40:07;17.15;;;7.25;;
24279;SDS011;12395;42.808;23.408;2022-12-07T03:42:41;16.30;;;7.20;;
24279;SDS011;12395;42.808;23.408;2022-12-07T03:45:07;16.58;;;7.63;;
24279;SDS011;12395;42.808;23.408;2022-12-07T03:47:47;19.77;;;8.05;;
24279;SDS011;12395;42.808;23.408;2022-12-07T03:50:25;19.15;;;7.57;;
24279;SDS011;12395;42.808;23.408;2022-12-07T03:53:04;14.63;;;7.07;;
24279;SDS011;12395;42.808;23.408;2022-12-07T03:55:36;15.13;;;6.88;;
24279;SDS011;12395;42.808;23.408;2022-12-07T03:58:11;16.73;;;7.50;;
24279;SDS011;12395;42.808;23.408;2022-12-07T04:00:43;18.13;;;7.30;;
24279;SDS011;12395;42.808;23.408;2022-12-07T04:03:09;16.08;;;7.47;;
24279;SDS011;12395;42.808;23.408;2022-12-07T04:05:35;18.48;;;8.60;;
24279;SDS011;12395;42.808;23.408;2022-12-07T04:08:01;19.52;;;8.38;;
24279;SDS011;12395;42.808;23.408;2022-12-07T04:10:27;17.87;;;7.87;;
24279;SDS011;12395;42.808;23.408;2022-12-07T04:12:53;19.88;;;8.60;;
24279;SDS011;12395;42.808;23.408;2022-12-07T04:15:18;19.80;;;8.77;;
24279;SDS011;12395;42.808;23.408;2022-12-07T04:17:43;18.00;;;8.40;;
24279;SDS011;12395;42.808;23.408;2022-12-07T04:20:09;20.48;;;8.30;;
24279;SDS011;12395;42.808;23.408;2022-12-07T04:22:35;16.63;;;7.82;;
24279;SDS011;12395;42.808;23.408;2022-12-07T04:25:01;18.60;;;7.73;;
24279;SDS011;12395;42.808;23.408;2022-12-07T04:27:26;17.42;;;7.65;;
24279;SDS011;12395;42.808;23.408;2022-12-07T04:29:51;15.97;;;7.40;;
24279;SDS011;12395;42.808;23.408;2022-12-07T04:32:18;23.27;;;8.13;;
24279;SDS011;12395;42.808;23.408;2022-12-07T04:34:43;19.50;;;7.82;;
24279;SDS011;12395;42.808;23.408;2022-12-07T04:37:09;15.35;;;7.22;;
24279;SDS011;12395;42.808;23.408;2022-12-07T04:39:34;20.05;;;7.80;;
24279;SDS011;12395;42.808;23.408;2022-12-07T04:42:00;18.87;;;7.83;;
24279;SDS011;12395;42.808;23.408;2022-12-07T04:44:26;17.45;;;7.75;;
24279;SDS011;12395;42.808;23.408;2022-12-07T04:46:53;18.97;;;7.87;;
24279;SDS011;12395;42.808;23.408;2022-12-07T04:49:19;18.77;;;7.60;;
24279;SDS011;12395;42.808;23.408;2022-12-07T04:51:46;17.60;;;7.90;;
24279;SDS011;12395;42.808;23.408;2022-12-07T04:54:12;20.43;;;7.57;;
24279;SDS011;12395;42.808;23.408;2022-12-07T04:56:39;18.80;;;8.30;;
24279;SDS011;12395;42.808;23.408;2022-12-07T04:59:04;19.27;;;8.37;;
24279;SDS011;12395;42.808;23.408;2022-12-07T05:01:30;19.87;;;8.83;;
24279;SDS011;12395;42.808;23.408;2022-12-07T05:03:56;17.17;;;7.70;;
24279;SDS011;12395;42.808;23.408;2022-12-07T05:06:21;16.53;;;7.80;;
24279;SDS011;12395;42.808;23.408;2022-12-07T05:08:46;16.60;;;7.93;;
24279;SDS011;12395;42.808;23.408;2022-12-07T05:11:12;18.60;;;7.97;;
24279;SDS011;12395;42.808;23.408;2022-12-07T05:13:58;17.27;;;8.13;;
24279;SDS011;12395;42.808;23.408;2022-12-07T05:16:23;17.90;;;7.83;;
24279;SDS011;12395;42.808;23.408;2022-12-07T05:18:49;21.83;;;8.47;;
24279;SDS011;12395;42.808;23.408;2022-12-07T05:21:14;18.93;;;8.60;;
24279;SDS011;12395;42.808;23.408;2022-12-07T05:23:39;18.83;;;8.50;;
24279;SDS011;12395;42.808;23.408;2022-12-07T05:26:05;18.93;;;8.37;;
24279;SDS011;12395;42.808;23.408;2022-12-07T05:28:30;18.90;;;8.10;;
24279;SDS011;12395;42.808;23.408;2022-12-07T05:30:56;18.37;;;7.97;;
24279;SDS011;12395;42.808;23.408;2022-12-07T05:33:21;20.17;;;7.90;;
24279;SDS011;12395;42.808;23.408;2022-12-07T05:35:47;33.17;;;20.37;;
24279;SDS011;12395;42.808;23.408;2022-12-07T05:38:12;20.83;;;9.00;;
24279;SDS011;12395;42.808;23.408;2022-12-07T05:40:37;18.47;;;8.00;;
24279;SDS011;12395;42.808;23.408;2022-12-07T05:43:03;20.60;;;8.67;;
24279;SDS011;12395;42.808;23.408;2022-12-07T05:45:28;19.33;;;8.60;;
24279;SDS011;12395;42.808;23.408;2022-12-07T05:47:54;25.70;;;12.90;;
24279;SDS011;12395;42.808;23.408;2022-12-07T05:50:19;20.77;;;8.80;;
24279;SDS011;12395;42.808;23.408;2022-12-07T05:52:44;20.67;;;8.30;;
24279;SDS011;12395;42.808;23.408;2022-12-07T05:55:10;17.97;;;8.27;;
24279;SDS011;12395;42.808;23.408;2022-12-07T05:57:35;22.83;;;8.43;;
24279;SDS011;12395;42.808;23.408;2022-12-07T06:00:01;19.93;;;8.47;;
24279;SDS011;12395;42.808;23.408;2022-12-07T06:02:26;23.43;;;11.00;;
24279;SDS011;12395;42.808;23.408;2022-12-07T06:04:52;24.00;;;11.00;;
24279;SDS011;12395;42.808;23.408;2022-12-07T06:07:17;20.03;;;8.60;;
24279;SDS011;12395;42.808;23.408;2022-12-07T06:09:42;22.20;;;9.77;;
24279;SDS011;12395;42.808;23.408;2022-12-07T06:12:11;18.90;;;8.43;;
24279;SDS011;12395;42.808;23.408;2022-12-07T06:14:56;23.10;;;10.17;;
24279;SDS011;12395;42.808;23.408;2022-12-07T06:17:21;19.53;;;8.80;;
24279;SDS011;12395;42.808;23.408;2022-12-07T06:19:47;22.00;;;8.77;;
24279;SDS011;12395;42.808;23.408;2022-12-07T06:22:12;20.90;;;8.80;;
24279;SDS011;12395;42.808;23.408;2022-12-07T06:24:38;20.67;;;8.93;;
24279;SDS011;12395;42.808;23.408;2022-12-07T06:27:04;19.07;;;10.10;;
24279;SDS011;12395;42.808;23.408;2022-12-07T06:29:30;20.37;;;8.80;;
24279;SDS011;12395;42.808;23.408;2022-12-07T06:31:56;18.58;;;8.32;;
24279;SDS011;12395;42.808;23.408;2022-12-07T06:34:22;17.05;;;7.70;;
24279;SDS011;12395;42.808;23.408;2022-12-07T06:36:49;18.30;;;8.73;;
24279;SDS011;12395;42.808;23.408;2022-12-07T06:39:23;18.90;;;8.05;;
24279;SDS011;12395;42.808;23.408;2022-12-07T06:41:51;17.85;;;8.15;;
24279;SDS011;12395;42.808;23.408;2022-12-07T06:44:17;16.90;;;8.30;;
24279;SDS011;12395;42.808;23.408;2022-12-07T06:46:43;19.88;;;8.98;;
24279;SDS011;12395;42.808;23.408;2022-12-07T06:49:09;18.88;;;8.10;;
24279;SDS011;12395;42.808;23.408;2022-12-07T06:51:34;18.67;;;8.25;;
24279;SDS011;12395;42.808;23.408;2022-12-07T06:54:01;19.23;;;9.57;;
24279;SDS011;12395;42.808;23.408;2022-12-07T06:56:28;20.98;;;10.93;;
24279;SDS011;12395;42.808;23.408;2022-12-07T06:58:53;17.08;;;8.27;;
24279;SDS011;12395;42.808;23.408;2022-12-07T07:01:19;20.88;;;9.43;;
24279;SDS011;12395;42.808;23.408;2022-12-07T07:03:44;20.00;;;9.82;;
24279;SDS011;12395;42.808;23.408;2022-12-07T07:06:12;21.23;;;10.07;;
24279;SDS011;12395;42.808;23.408;2022-12-07T07:08:39;19.20;;;8.93;;
24279;SDS011;12395;42.808;23.408;2022-12-07T07:11:05;19.20;;;8.32;;
24279;SDS011;12395;42.808;23.408;2022-12-07T07:13:32;23.15;;;12.80;;
24279;SDS011;12395;42.808;23.408;2022-12-07T07:15:58;21.08;;;10.15;;
24279;SDS011;12395;42.808;23.408;2022-12-07T07:18:23;20.95;;;10.50;;
24279;SDS011;12395;42.808;23.408;2022-12-07T07:20:50;20.35;;;9.95;;
24279;SDS011;12395;42.808;23.408;2022-12-07T07:23:16;18.83;;;9.63;;
24279;SDS011;12395;42.808;23.408;2022-12-07T07:25:42;19.65;;;9.05;;
24279;SDS011;12395;42.808;23.408;2022-12-07T07:28:07;24.85;;;11.50;;
24279;SDS011;12395;42.808;23.408;2022-12-07T07:30:33;24.25;;;12.27;;
24279;SDS011;12395;42.808;23.408;2022-12-07T07:32:59;27.75;;;14.60;;
24279;SDS011;12395;42.808;23.408;2022-12-07T07:35:26;21.13;;;10.77;;
24279;SDS011;12395;42.808;23.408;2022-12-07T07:37:52;23.70;;;11.85;;
24279;SDS011;12395;42.808;23.408;2022-12-07T07:40:18;27.05;;;12.70;;
24279;SDS011;12395;42.808;23.408;2022-12-07T07:42:43;23.60;;;12.32;;
24279;SDS011;12395;42.808;23.408;2022-12-07T07:45:09;29.95;;;13.10;;
24279;SDS011;12395;42.808;23.408;2022-12-07T07:47:35;35.97;;;17.30;;
24279;SDS011;12395;42.808;23.408;2022-12-07T07:50:00;31.23;;;16.95;;
24279;SDS011;12395;42.808;23.408;2022-12-07T07:52:25;31.38;;;16.80;;
24279;SDS011;12395;42.808;23.408;2022-12-07T07:54:51;35.55;;;18.10;;
24279;SDS011;12395;42.808;23.408;2022-12-07T07:57:17;38.55;;;20.83;;
24279;SDS011;12395;42.808;23.408;2022-12-07T07:59:42;36.25;;;17.45;;
24279;SDS011;12395;42.808;23.408;2022-12-07T08:02:18;31.20;;;14.95;;
24279;SDS011;12395;42.808;23.408;2022-12-07T08:04:45;31.05;;;16.05;;
24279;SDS011;12395;42.808;23.408;2022-12-07T08:07:11;31.50;;;16.52;;
24279;SDS011;12395;42.808;23.408;2022-12-07T08:09:37;36.92;;;18.77;;
24279;SDS011;12395;42.808;23.408;2022-12-07T08:12:03;37.03;;;18.38;;
24279;SDS011;12395;42.808;23.408;2022-12-07T08:14:30;33.03;;;16.83;;
24279;SDS011;12395;42.808;23.408;2022-12-07T08:16:55;34.25;;;17.20;;
24279;SDS011;12395;42.808;23.408;2022-12-07T08:19:21;32.03;;;16.17;;
24279;SDS011;12395;42.808;23.408;2022-12-07T08:21:46;27.58;;;14.13;;
24279;SDS011;12395;42.808;23.408;2022-12-07T08:24:12;35.17;;;17.70;;
24279;SDS011;12395;42.808;23.408;2022-12-07T08:26:38;60.05;;;28.05;;
24279;SDS011;12395;42.808;23.408;2022-12-07T08:29:03;44.42;;;19.98;;
24279;SDS011;12395;42.808;23.408;2022-12-07T08:31:28;36.00;;;17.65;;
24279;SDS011;12395;42.808;23.408;2022-12-07T08:33:54;39.38;;;19.85;;
24279;SDS011;12395;42.808;23.408;2022-12-07T08:36:20;34.88;;;17.95;;
24279;SDS011;12395;42.808;23.408;2022-12-07T08:38:47;30.40;;;15.38;;
24279;SDS011;12395;42.808;23.408;2022-12-07T08:41:13;37.13;;;17.42;;
24279;SDS011;12395;42.808;23.408;2022-12-07T08:43:39;38.15;;;18.90;;
24279;SDS011;12395;42.808;23.408;2022-12-07T08:46:17;36.40;;;18.20;;
24279;SDS011;12395;42.808;23.408;2022-12-07T08:48:48;34.00;;;16.67;;
24279;SDS011;12395;42.808;23.408;2022-12-07T08:51:18;34.20;;;16.17;;
24279;SDS011;12395;42.808;23.408;2022-12-07T08:53:44;35.40;;;17.27;;
24279;SDS011;12395;42.808;23.408;2022-12-07T08:56:10;37.00;;;18.42;;
24279;SDS011;12395;42.808;23.408;2022-12-07T08:58:36;33.50;;;16.88;;
24279;SDS011;12395;42.808;23.408;2022-12-07T09:01:03;32.95;;;15.82;;
24279;SDS011;12395;42.808;23.408;2022-12-07T09:03:29;32.03;;;16.05;;
24279;SDS011;12395;42.808;23.408;2022-12-07T09:05:55;32.00;;;16.13;;
24279;SDS011;12395;42.808;23.408;2022-12-07T09:08:21;31.50;;;16.42;;
24279;SDS011;12395;42.808;23.408;2022-12-07T09:10:48;29.42;;;14.60;;
24279;SDS011;12395;42.808;23.408;2022-12-07T09:13:13;29.52;;;14.13;;
24279;SDS011;12395;42.808;23.408;2022-12-07T09:15:39;29.80;;;13.68;;
24279;SDS011;12395;42.808;23.408;2022-12-07T09:18:04;28.73;;;13.43;;
24279;SDS011;12395;42.808;23.408;2022-12-07T09:20:30;24.08;;;12.70;;
24279;SDS011;12395;42.808;23.408;2022-12-07T09:22:55;29.77;;;13.63;;
24279;SDS011;12395;42.808;23.408;2022-12-07T09:25:21;26.42;;;13.00;;
24279;SDS011;12395;42.808;23.408;2022-12-07T09:27:46;28.60;;;13.63;;
24279;SDS011;12395;42.808;23.408;2022-12-07T09:30:12;32.67;;;15.98;;
24279;SDS011;12395;42.808;23.408;2022-12-07T09:32:38;28.00;;;13.40;;
24279;SDS011;12395;42.808;23.408;2022-12-07T09:35:03;31.25;;;14.75;;
24279;SDS011;12395;42.808;23.408;2022-12-07T09:37:29;34.33;;;16.05;;
24279;SDS011;12395;42.808;23.408;2022-12-07T09:39:56;27.10;;;13.55;;
24279;SDS011;12395;42.808;23.408;2022-12-07T09:45:25;30.92;;;13.77;;
24279;SDS011;12395;42.808;23.408;2022-12-07T09:47:56;29.00;;;13.70;;
24279;SDS011;12395;42.808;23.408;2022-12-07T09:50:23;27.77;;;13.65;;
24279;SDS011;12395;42.808;23.408;2022-12-07T09:52:51;29.40;;;12.88;;
24279;SDS011;12395;42.808;23.408;2022-12-07T09:55:26;26.13;;;13.10;;
24279;SDS011;12395;42.808;23.408;2022-12-07T09:57:54;28.73;;;13.52;;
24279;SDS011;12395;42.808;23.408;2022-12-07T10:00:21;27.88;;;13.00;;
24279;SDS011;12395;42.808;23.408;2022-12-07T10:05:36;28.52;;;13.70;;
24279;SDS011;12395;42.808;23.408;2022-12-07T10:08:07;25.73;;;12.43;;
24279;SDS011;12395;42.808;23.408;2022-12-07T10:10:35;31.55;;;14.95;;
24279;SDS011;12395;42.808;23.408;2022-12-07T10:13:08;28.63;;;13.05;;
24279;SDS011;12395;42.808;23.408;2022-12-07T10:18:19;28.17;;;12.82;;
24279;SDS011;12395;42.808;23.408;2022-12-07T10:21:00;29.52;;;13.13;;
24279;SDS011;12395;42.808;23.408;2022-12-07T10:23:28;27.20;;;12.65;;
24279;SDS011;12395;42.808;23.408;2022-12-07T10:25:53;28.10;;;12.18;;
24279;SDS011;12395;42.808;23.408;2022-12-07T10:28:20;31.42;;;13.98;;
24279;SDS011;12395;42.808;23.408;2022-12-07T10:30:56;30.83;;;14.20;;
24279;SDS011;12395;42.808;23.408;2022-12-07T10:39:12;28.50;;;12.05;;
24279;SDS011;12395;42.808;23.408;2022-12-07T10:42:43;28.17;;;12.50;;
24279;SDS011;12395;42.808;23.408;2022-12-07T10:44:42;27.05;;;11.82;;
24279;SDS011;12395;42.808;23.408;2022-12-07T10:49:43;27.17;;;12.15;;
24279;SDS011;12395;42.808;23.408;2022-12-07T10:58:16;27.02;;;11.90;;
24279;SDS011;12395;42.808;23.408;2022-12-07T11:01:04;27.50;;;12.65;;
24279;SDS011;12395;42.808;23.408;2022-12-07T11:03:39;23.65;;;11.32;;
24279;SDS011;12395;42.808;23.408;2022-12-07T11:11:55;26.02;;;11.93;;
24279;SDS011;12395;42.808;23.408;2022-12-07T11:14:34;26.67;;;12.35;;
24279;SDS011;12395;42.808;23.408;2022-12-07T11:17:17;31.92;;;13.95;;
24279;SDS011;12395;42.808;23.408;2022-12-07T11:22:36;26.02;;;11.60;;
24279;SDS011;12395;42.808;23.408;2022-12-07T11:30:34;26.70;;;13.18;;
24279;SDS011;12395;42.808;23.408;2022-12-07T11:33:45;24.63;;;11.80;;
24279;SDS011;12395;42.808;23.408;2022-12-07T11:41:44;21.75;;;10.40;;
24279;SDS011;12395;42.808;23.408;2022-12-07T11:47:25;25.10;;;11.30;;
24279;SDS011;12395;42.808;23.408;2022-12-07T11:50:08;25.70;;;11.63;;
24279;SDS011;12395;42.808;23.408;2022-12-07T12:01:13;24.77;;;11.73;;
24279;SDS011;12395;42.808;23.408;2022-12-07T12:03:45;21.33;;;9.68;;
24279;SDS011;12395;42.808;23.408;2022-12-07T12:06:13;24.77;;;10.60;;
24279;SDS011;12395;42.808;23.408;2022-12-07T12:08:40;23.00;;;10.73;;
24279;SDS011;12395;42.808;23.408;2022-12-07T12:19:35;22.48;;;11.00;;
24279;SDS011;12395;42.808;23.408;2022-12-07T12:22:23;19.77;;;9.02;;
24279;SDS011;12395;42.808;23.408;2022-12-07T12:24:57;17.25;;;8.30;;
24279;SDS011;12395;42.808;23.408;2022-12-07T12:27:30;18.92;;;8.77;;
24279;SDS011;12395;42.808;23.408;2022-12-07T12:30:01;14.07;;;6.95;;
24279;SDS011;12395;42.808;23.408;2022-12-07T12:35:01;20.92;;;9.25;;
24279;SDS011;12395;42.808;23.408;2022-12-07T12:37:46;15.13;;;7.55;;
24279;SDS011;12395;42.808;23.408;2022-12-07T12:42:44;12.88;;;7.45;;
24279;SDS011;12395;42.808;23.408;2022-12-07T12:45:31;14.38;;;6.38;;
24279;SDS011;12395;42.808;23.408;2022-12-07T12:48:01;13.68;;;6.55;;
24279;SDS011;12395;42.808;23.408;2022-12-07T13:00:47;13.07;;;7.00;;
24279;SDS011;12395;42.808;23.408;2022-12-07T13:03:34;11.55;;;6.15;;
24279;SDS011;12395;42.808;23.408;2022-12-07T13:06:19;14.88;;;6.72;;
24279;SDS011;12395;42.808;23.408;2022-12-07T13:08:58;21.25;;;9.80;;
24279;SDS011;12395;42.808;23.408;2022-12-07T13:11:29;16.67;;;8.63;;
24279;SDS011;12395;42.808;23.408;2022-12-07T13:17:02;13.27;;;6.43;;
24279;SDS011;12395;42.808;23.408;2022-12-07T13:22:27;13.88;;;7.10;;
24279;SDS011;12395;42.808;23.408;2022-12-07T13:25:58;13.23;;;6.75;;
24279;SDS011;12395;42.808;23.408;2022-12-07T13:28:19;14.02;;;6.40;;
24279;SDS011;12395;42.808;23.408;2022-12-07T13:30:49;14.98;;;6.53;;
24279;SDS011;12395;42.808;23.408;2022-12-07T13:33:18;16.80;;;7.70;;
24279;SDS011;12395;42.808;23.408;2022-12-07T13:35:44;16.10;;;8.45;;
24279;SDS011;12395;42.808;23.408;2022-12-07T13:38:23;19.38;;;10.45;;
24279;SDS011;12395;42.808;23.408;2022-12-07T13:41:00;14.57;;;7.80;;
24279;SDS011;12395;42.808;23.408;2022-12-07T13:43:26;13.55;;;6.55;;
24279;SDS011;12395;42.808;23.408;2022-12-07T13:45:56;13.93;;;7.28;;
24279;SDS011;12395;42.808;23.408;2022-12-07T13:48:36;14.43;;;7.03;;
24279;SDS011;12395;42.808;23.408;2022-12-07T13:51:16;14.25;;;7.20;;
24279;SDS011;12395;42.808;23.408;2022-12-07T13:54:06;14.70;;;7.68;;
24279;SDS011;12395;42.808;23.408;2022-12-07T13:56:37;18.83;;;8.45;;
24279;SDS011;12395;42.808;23.408;2022-12-07T13:59:10;18.35;;;7.97;;
24279;SDS011;12395;42.808;23.408;2022-12-07T14:01:39;19.83;;;8.82;;
24279;SDS011;12395;42.808;23.408;2022-12-07T14:06:57;16.52;;;7.95;;
24279;SDS011;12395;42.808;23.408;2022-12-07T14:09:24;17.15;;;9.75;;
24279;SDS011;12395;42.808;23.408;2022-12-07T14:11:51;19.75;;;11.43;;
24279;SDS011;12395;42.808;23.408;2022-12-07T14:14:29;18.48;;;8.85;;
24279;SDS011;12395;42.808;23.408;2022-12-07T14:17:01;16.05;;;7.65;;
24279;SDS011;12395;42.808;23.408;2022-12-07T14:22:34;16.23;;;7.53;;
24279;SDS011;12395;42.808;23.408;2022-12-07T14:28:43;16.08;;;7.75;;
24279;SDS011;12395;42.808;23.408;2022-12-07T14:30:53;16.88;;;7.88;;
24279;SDS011;12395;42.808;23.408;2022-12-07T14:33:18;19.73;;;10.07;;
24279;SDS011;12395;42.808;23.408;2022-12-07T14:35:45;25.38;;;11.43;;
24279;SDS011;12395;42.808;23.408;2022-12-07T14:38:10;17.73;;;9.73;;
24279;SDS011;12395;42.808;23.408;2022-12-07T14:40:36;18.08;;;9.60;;
24279;SDS011;12395;42.808;23.408;2022-12-07T14:43:05;20.20;;;10.18;;
24279;SDS011;12395;42.808;23.408;2022-12-07T14:45:35;20.25;;;9.32;;
24279;SDS011;12395;42.808;23.408;2022-12-07T14:48:00;18.10;;;8.95;;
24279;SDS011;12395;42.808;23.408;2022-12-07T14:50:26;18.95;;;8.75;;
24279;SDS011;12395;42.808;23.408;2022-12-07T14:52:55;17.02;;;8.68;;
24279;SDS011;12395;42.808;23.408;2022-12-07T14:55:25;17.23;;;8.30;;
24279;SDS011;12395;42.808;23.408;2022-12-07T14:57:55;16.95;;;8.25;;
24279;SDS011;12395;42.808;23.408;2022-12-07T15:00:21;17.40;;;7.15;;
24279;SDS011;12395;42.808;23.408;2022-12-07T15:02:49;13.82;;;7.03;;
24279;SDS011;12395;42.808;23.408;2022-12-07T15:05:15;16.98;;;7.25;;
24279;SDS011;12395;42.808;23.408;2022-12-07T15:07:41;16.33;;;7.68;;
24279;SDS011;12395;42.808;23.408;2022-12-07T15:10:09;17.48;;;7.43;;
24279;SDS011;12395;42.808;23.408;2022-12-07T15:12:40;15.05;;;7.32;;
24279;SDS011;12395;42.808;23.408;2022-12-07T15:15:05;15.57;;;7.80;;
24279;SDS011;12395;42.808;23.408;2022-12-07T15:17:31;14.82;;;7.07;;
24279;SDS011;12395;42.808;23.408;2022-12-07T15:19:56;14.48;;;7.30;;
24279;SDS011;12395;42.808;23.408;2022-12-07T15:22:22;13.73;;;6.80;;
24279;SDS011;12395;42.808;23.408;2022-12-07T15:24:47;14.63;;;7.43;;
24279;SDS011;12395;42.808;23.408;2022-12-07T15:27:12;14.73;;;7.68;;
24279;SDS011;12395;42.808;23.408;2022-12-07T15:29:38;13.90;;;7.10;;
24279;SDS011;12395;42.808;23.408;2022-12-07T15:32:03;14.98;;;7.25;;
24279;SDS011;12395;42.808;23.408;2022-12-07T15:34:29;12.80;;;7.10;;
24279;SDS011;12395;42.808;23.408;2022-12-07T15:36:55;15.20;;;7.38;;
24279;SDS011;12395;42.808;23.408;2022-12-07T15:39:21;14.60;;;7.22;;
24279;SDS011;12395;42.808;23.408;2022-12-07T15:41:47;14.98;;;7.68;;
24279;SDS011;12395;42.808;23.408;2022-12-07T15:44:12;15.10;;;7.93;;
24279;SDS011;12395;42.808;23.408;2022-12-07T15:46:56;16.13;;;8.27;;
24279;SDS011;12395;42.808;23.408;2022-12-07T15:49:22;20.88;;;14.18;;
24279;SDS011;12395;42.808;23.408;2022-12-07T15:51:47;19.58;;;13.40;;
24279;SDS011;12395;42.808;23.408;2022-12-07T15:54:15;14.13;;;8.32;;
24279;SDS011;12395;42.808;23.408;2022-12-07T15:56:44;20.35;;;8.40;;
24279;SDS011;12395;42.808;23.408;2022-12-07T15:59:10;17.75;;;8.75;;
24279;SDS011;12395;42.808;23.408;2022-12-07T16:01:35;19.00;;;9.40;;
24279;SDS011;12395;42.808;23.408;2022-12-07T16:04:00;18.13;;;9.48;;
24279;SDS011;12395;42.808;23.408;2022-12-07T16:06:26;17.98;;;9.70;;
24279;SDS011;12395;42.808;23.408;2022-12-07T16:08:51;19.80;;;10.10;;
24279;SDS011;12395;42.808;23.408;2022-12-07T16:11:17;18.70;;;9.55;;
24279;SDS011;12395;42.808;23.408;2022-12-07T16:13:42;18.33;;;9.40;;
24279;SDS011;12395;42.808;23.408;2022-12-07T16:16:10;20.42;;;9.05;;
24279;SDS011;12395;42.808;23.408;2022-12-07T16:18:38;16.33;;;9.02;;
24279;SDS011;12395;42.808;23.408;2022-12-07T16:21:04;16.83;;;8.90;;
24279;SDS011;12395;42.808;23.408;2022-12-07T16:23:29;15.73;;;8.65;;